sensor_id;sensor_type;location;lat;lon;timestamp;P1;durP1;ratioP1;P2;durP2;ratioP2
48263;SDS011;34086;51.076;13.722;2022-09-27T00:00:08;4.00;;;3.60;;
48263;SDS011;34086;51.076;13.722;2022-09-27T00:01:14;6.35;;;3.80;;
48263;SDS011;34086;51.076;13.722;2022-09-27T00:02:15;5.65;;;3.65;;
48263;SDS011;34086;51.076;13.722;2022-09-27T00:03:16;4.03;;;3.63;;
48263;SDS011;34086;51.076;13.722;2022-09-27T00:04:17;6.00;;;3.63;;
48263;SDS011;34086;51.076;13.722;2022-09-27T00:05:17;3.97;;;3.58;;
48263;SDS011;34086;51.076;13.722;2022-09-27T00:06:21;4.75;;;3.63;;
48263;SDS011;34086;51.076;13.722;2022-09-27T00:07:26;5.18;;;3.65;;
48263;SDS011;34086;51.076;13.722;2022-09-27T00:08:27;4.30;;;3.30;;
48263;SDS011;34086;51.076;13.722;2022-09-27T00:09:28;4.45;;;3.50;;
48263;SDS011;34086;51.076;13.722;2022-09-27T00:10:29;3.53;;;3.10;;
48263;SDS011;34086;51.076;13.722;2022-09-27T00:11:34;3.65;;;3.25;;
48263;SDS011;34086;51.076;13.722;2022-09-27T00:12:36;3.58;;;3.28;;
48263;SDS011;34086;51.076;13.722;2022-09-27T00:13:37;4.43;;;3.53;;
48263;SDS011;34086;51.076;13.722;2022-09-27T00:14:38;5.28;;;3.40;;
48263;SDS011;34086;51.076;13.722;2022-09-27T00:15:39;4.05;;;3.17;;
48263;SDS011;34086;51.076;13.722;2022-09-27T00:16:40;5.03;;;3.50;;
48263;SDS011;34086;51.076;13.722;2022-09-27T00:17:42;4.80;;;3.33;;
48263;SDS011;34086;51.076;13.722;2022-09-27T00:18:43;4.20;;;3.08;;
48263;SDS011;34086;51.076;13.722;2022-09-27T00:19:43;3.58;;;3.00;;
48263;SDS011;34086;51.076;13.722;2022-09-27T00:20:44;3.50;;;3.00;;
48263;SDS011;34086;51.076;13.722;2022-09-27T00:21:45;3.40;;;3.00;;
48263;SDS011;34086;51.076;13.722;2022-09-27T00:22:46;4.25;;;3.20;;
48263;SDS011;34086;51.076;13.722;2022-09-27T00:23:48;3.72;;;3.00;;
48263;SDS011;34086;51.076;13.722;2022-09-27T00:24:49;4.78;;;3.00;;
48263;SDS011;34086;51.076;13.722;2022-09-27T00:25:56;3.30;;;3.00;;
48263;SDS011;34086;51.076;13.722;2022-09-27T00:26:57;4.55;;;3.03;;
48263;SDS011;34086;51.076;13.722;2022-09-27T00:27:58;4.97;;;3.20;;
48263;SDS011;34086;51.076;13.722;2022-09-27T00:28:59;3.47;;;3.00;;
48263;SDS011;34086;51.076;13.722;2022-09-27T00:30:00;4.10;;;3.00;;
48263;SDS011;34086;51.076;13.722;2022-09-27T00:31:01;4.10;;;3.10;;
48263;SDS011;34086;51.076;13.722;2022-09-27T00:32:02;3.25;;;2.95;;
48263;SDS011;34086;51.076;13.722;2022-09-27T00:33:02;4.97;;;3.20;;
48263;SDS011;34086;51.076;13.722;2022-09-27T00:34:04;4.05;;;3.03;;
48263;SDS011;34086;51.076;13.722;2022-09-27T00:35:06;3.88;;;3.00;;
48263;SDS011;34086;51.076;13.722;2022-09-27T00:36:08;3.95;;;3.08;;
48263;SDS011;34086;51.076;13.722;2022-09-27T00:37:09;3.90;;;2.90;;
48263;SDS011;34086;51.076;13.722;2022-09-27T00:38:11;3.17;;;2.80;;
48263;SDS011;34086;51.076;13.722;2022-09-27T00:39:12;4.15;;;2.65;;
48263;SDS011;34086;51.076;13.722;2022-09-27T00:40:13;3.63;;;2.60;;
48263;SDS011;34086;51.076;13.722;2022-09-27T00:41:23;4.07;;;3.00;;
48263;SDS011;34086;51.076;13.722;2022-09-27T00:42:26;3.95;;;2.90;;
48263;SDS011;34086;51.076;13.722;2022-09-27T00:43:33;4.18;;;2.67;;
48263;SDS011;34086;51.076;13.722;2022-09-27T00:44:57;3.30;;;2.72;;
48263;SDS011;34086;51.076;13.722;2022-09-27T00:46:01;3.15;;;2.85;;
48263;SDS011;34086;51.076;13.722;2022-09-27T00:47:06;3.65;;;3.10;;
48263;SDS011;34086;51.076;13.722;2022-09-27T00:48:14;3.40;;;3.10;;
48263;SDS011;34086;51.076;13.722;2022-09-27T00:50:40;3.47;;;2.80;;
48263;SDS011;34086;51.076;13.722;2022-09-27T00:51:44;3.83;;;3.08;;
48263;SDS011;34086;51.076;13.722;2022-09-27T00:53:58;3.08;;;2.50;;
48263;SDS011;34086;51.076;13.722;2022-09-27T00:55:05;2.78;;;2.50;;
48263;SDS011;34086;51.076;13.722;2022-09-27T00:56:21;5.47;;;2.70;;
48263;SDS011;34086;51.076;13.722;2022-09-27T00:57:26;3.20;;;2.70;;
48263;SDS011;34086;51.076;13.722;2022-09-27T00:58:28;2.83;;;2.53;;
48263;SDS011;34086;51.076;13.722;2022-09-27T00:59:54;2.90;;;2.60;;
48263;SDS011;34086;51.076;13.722;2022-09-27T01:01:02;3.00;;;2.70;;
48263;SDS011;34086;51.076;13.722;2022-09-27T01:02:06;3.75;;;2.90;;
48263;SDS011;34086;51.076;13.722;2022-09-27T01:03:08;3.08;;;2.70;;
48263;SDS011;34086;51.076;13.722;2022-09-27T01:04:21;3.33;;;2.45;;
48263;SDS011;34086;51.076;13.722;2022-09-27T01:05:26;3.20;;;2.60;;
48263;SDS011;34086;51.076;13.722;2022-09-27T01:06:28;3.15;;;2.80;;
48263;SDS011;34086;51.076;13.722;2022-09-27T01:07:29;2.95;;;2.65;;
48263;SDS011;34086;51.076;13.722;2022-09-27T01:08:31;3.15;;;2.53;;
48263;SDS011;34086;51.076;13.722;2022-09-27T01:09:31;2.83;;;2.55;;
48263;SDS011;34086;51.076;13.722;2022-09-27T01:10:35;2.80;;;2.50;;
48263;SDS011;34086;51.076;13.722;2022-09-27T01:15:52;4.32;;;2.78;;
48263;SDS011;34086;51.076;13.722;2022-09-27T01:18:56;3.15;;;2.72;;
48263;SDS011;34086;51.076;13.722;2022-09-27T01:28:07;3.83;;;2.90;;
48263;SDS011;34086;51.076;13.722;2022-09-27T01:29:02;3.03;;;2.72;;
48263;SDS011;34086;51.076;13.722;2022-09-27T01:30:18;3.60;;;2.92;;
48263;SDS011;34086;51.076;13.722;2022-09-27T01:31:31;5.80;;;3.30;;
48263;SDS011;34086;51.076;13.722;2022-09-27T01:32:50;3.88;;;3.20;;
48263;SDS011;34086;51.076;13.722;2022-09-27T01:35:20;4.82;;;3.20;;
48263;SDS011;34086;51.076;13.722;2022-09-27T01:36:31;4.55;;;3.42;;
48263;SDS011;34086;51.076;13.722;2022-09-27T01:37:40;4.30;;;3.33;;
48263;SDS011;34086;51.076;13.722;2022-09-27T01:39:10;4.10;;;3.20;;
48263;SDS011;34086;51.076;13.722;2022-09-27T01:43:47;3.85;;;3.35;;
48263;SDS011;34086;51.076;13.722;2022-09-27T01:45:01;5.03;;;3.30;;
48263;SDS011;34086;51.076;13.722;2022-09-27T01:46:18;3.88;;;3.47;;
48263;SDS011;34086;51.076;13.722;2022-09-27T01:47:59;4.90;;;3.58;;
48263;SDS011;34086;51.076;13.722;2022-09-27T01:50:15;4.60;;;3.70;;
48263;SDS011;34086;51.076;13.722;2022-09-27T01:52:36;4.97;;;3.90;;
48263;SDS011;34086;51.076;13.722;2022-09-27T01:53:43;4.38;;;3.72;;
48263;SDS011;34086;51.076;13.722;2022-09-27T01:55:07;4.82;;;4.00;;
48263;SDS011;34086;51.076;13.722;2022-09-27T01:56:31;4.30;;;3.90;;
48263;SDS011;34086;51.076;13.722;2022-09-27T01:57:45;5.07;;;4.10;;
48263;SDS011;34086;51.076;13.722;2022-09-27T01:59:00;5.10;;;3.97;;
48263;SDS011;34086;51.076;13.722;2022-09-27T02:00:07;4.03;;;3.63;;
48263;SDS011;34086;51.076;13.722;2022-09-27T02:01:15;4.05;;;3.63;;
48263;SDS011;34086;51.076;13.722;2022-09-27T02:02:20;4.30;;;3.80;;
48263;SDS011;34086;51.076;13.722;2022-09-27T02:03:44;5.18;;;3.80;;
48263;SDS011;34086;51.076;13.722;2022-09-27T02:05:10;5.05;;;3.80;;
48263;SDS011;34086;51.076;13.722;2022-09-27T02:06:25;4.03;;;3.60;;
48263;SDS011;34086;51.076;13.722;2022-09-27T02:07:40;4.75;;;3.85;;
48263;SDS011;34086;51.076;13.722;2022-09-27T02:08:52;4.43;;;3.67;;
48263;SDS011;34086;51.076;13.722;2022-09-27T02:10:17;4.25;;;3.85;;
48263;SDS011;34086;51.076;13.722;2022-09-27T02:11:27;4.20;;;3.80;;
48263;SDS011;34086;51.076;13.722;2022-09-27T02:12:55;4.38;;;3.50;;
48263;SDS011;34086;51.076;13.722;2022-09-27T02:14:14;4.00;;;3.60;;
48263;SDS011;34086;51.076;13.722;2022-09-27T02:15:21;4.10;;;3.70;;
48263;SDS011;34086;51.076;13.722;2022-09-27T02:16:47;5.03;;;3.70;;
48263;SDS011;34086;51.076;13.722;2022-09-27T02:18:03;4.03;;;3.63;;
48263;SDS011;34086;51.076;13.722;2022-09-27T02:20:40;4.10;;;3.70;;
48263;SDS011;34086;51.076;13.722;2022-09-27T02:26:09;4.47;;;3.72;;
48263;SDS011;34086;51.076;13.722;2022-09-27T02:27:21;3.67;;;3.25;;
48263;SDS011;34086;51.076;13.722;2022-09-27T02:29:34;3.53;;;3.22;;
48263;SDS011;34086;51.076;13.722;2022-09-27T02:30:42;4.85;;;3.22;;
48263;SDS011;34086;51.076;13.722;2022-09-27T02:32:54;5.43;;;3.05;;
48263;SDS011;34086;51.076;13.722;2022-09-27T02:33:57;3.90;;;3.20;;
48263;SDS011;34086;51.076;13.722;2022-09-27T02:35:06;4.40;;;3.38;;
48263;SDS011;34086;51.076;13.722;2022-09-27T02:36:19;3.45;;;2.75;;
48263;SDS011;34086;51.076;13.722;2022-09-27T02:37:20;3.53;;;2.90;;
48263;SDS011;34086;51.076;13.722;2022-09-27T02:38:21;3.50;;;2.95;;
48263;SDS011;34086;51.076;13.722;2022-09-27T02:39:24;3.03;;;2.80;;
48263;SDS011;34086;51.076;13.722;2022-09-27T02:40:35;3.50;;;3.10;;
48263;SDS011;34086;51.076;13.722;2022-09-27T02:41:45;3.60;;;3.20;;
48263;SDS011;34086;51.076;13.722;2022-09-27T02:42:46;4.43;;;3.10;;
48263;SDS011;34086;51.076;13.722;2022-09-27T02:43:48;3.63;;;3.15;;
48263;SDS011;34086;51.076;13.722;2022-09-27T02:44:53;3.85;;;3.13;;
48263;SDS011;34086;51.076;13.722;2022-09-27T02:53:23;7.97;;;4.13;;
48263;SDS011;34086;51.076;13.722;2022-09-27T02:56:44;7.05;;;4.40;;
48263;SDS011;34086;51.076;13.722;2022-09-27T02:59:49;6.18;;;4.95;;
48263;SDS011;34086;51.076;13.722;2022-09-27T03:01:17;5.93;;;4.70;;
48263;SDS011;34086;51.076;13.722;2022-09-27T03:02:50;6.28;;;4.38;;
48263;SDS011;34086;51.076;13.722;2022-09-27T03:05:32;5.22;;;4.70;;
48263;SDS011;34086;51.076;13.722;2022-09-27T03:06:42;7.30;;;5.18;;
48263;SDS011;34086;51.076;13.722;2022-09-27T03:07:46;5.30;;;4.80;;
48263;SDS011;34086;51.076;13.722;2022-09-27T03:08:48;5.50;;;4.70;;
48263;SDS011;34086;51.076;13.722;2022-09-27T03:09:51;5.47;;;4.80;;
48263;SDS011;34086;51.076;13.722;2022-09-27T03:10:53;7.35;;;5.10;;
48263;SDS011;34086;51.076;13.722;2022-09-27T03:11:54;6.53;;;4.70;;
48263;SDS011;34086;51.076;13.722;2022-09-27T03:12:55;6.68;;;4.90;;
48263;SDS011;34086;51.076;13.722;2022-09-27T03:13:57;6.38;;;4.70;;
48263;SDS011;34086;51.076;13.722;2022-09-27T03:14:59;6.32;;;4.80;;
48263;SDS011;34086;51.076;13.722;2022-09-27T03:16:19;5.95;;;4.93;;
48263;SDS011;34086;51.076;13.722;2022-09-27T03:17:34;6.68;;;4.45;;
48263;SDS011;34086;51.076;13.722;2022-09-27T03:19:04;5.07;;;4.30;;
48263;SDS011;34086;51.076;13.722;2022-09-27T03:20:33;5.75;;;4.53;;
48263;SDS011;34086;51.076;13.722;2022-09-27T03:21:41;5.45;;;4.53;;
48263;SDS011;34086;51.076;13.722;2022-09-27T03:22:42;5.70;;;4.60;;
48263;SDS011;34086;51.076;13.722;2022-09-27T03:23:43;6.53;;;4.20;;
48263;SDS011;34086;51.076;13.722;2022-09-27T03:24:44;5.00;;;4.45;;
48263;SDS011;34086;51.076;13.722;2022-09-27T03:25:45;8.15;;;5.32;;
48263;SDS011;34086;51.076;13.722;2022-09-27T03:26:45;6.80;;;5.07;;
48263;SDS011;34086;51.076;13.722;2022-09-27T03:27:46;7.10;;;4.90;;
48263;SDS011;34086;51.076;13.722;2022-09-27T03:28:47;6.30;;;4.85;;
48263;SDS011;34086;51.076;13.722;2022-09-27T03:29:48;6.65;;;4.90;;
48263;SDS011;34086;51.076;13.722;2022-09-27T03:30:49;7.03;;;5.00;;
48263;SDS011;34086;51.076;13.722;2022-09-27T03:32:10;5.95;;;4.72;;
48263;SDS011;34086;51.076;13.722;2022-09-27T03:33:24;6.43;;;5.15;;
48263;SDS011;34086;51.076;13.722;2022-09-27T03:34:30;6.78;;;5.03;;
48263;SDS011;34086;51.076;13.722;2022-09-27T03:35:31;7.80;;;5.22;;
48263;SDS011;34086;51.076;13.722;2022-09-27T03:36:32;8.05;;;5.43;;
48263;SDS011;34086;51.076;13.722;2022-09-27T03:37:33;8.18;;;5.38;;
48263;SDS011;34086;51.076;13.722;2022-09-27T03:38:33;5.32;;;4.78;;
48263;SDS011;34086;51.076;13.722;2022-09-27T03:39:34;7.30;;;5.18;;
48263;SDS011;34086;51.076;13.722;2022-09-27T03:40:35;6.07;;;5.25;;
48263;SDS011;34086;51.076;13.722;2022-09-27T03:41:36;6.43;;;5.68;;
48263;SDS011;34086;51.076;13.722;2022-09-27T03:42:37;9.15;;;6.45;;
48263;SDS011;34086;51.076;13.722;2022-09-27T03:43:39;8.23;;;6.03;;
48263;SDS011;34086;51.076;13.722;2022-09-27T03:44:40;8.38;;;6.10;;
48263;SDS011;34086;51.076;13.722;2022-09-27T03:45:42;7.72;;;6.20;;
48263;SDS011;34086;51.076;13.722;2022-09-27T03:46:44;8.90;;;6.28;;
48263;SDS011;34086;51.076;13.722;2022-09-27T03:47:46;9.57;;;6.28;;
48263;SDS011;34086;51.076;13.722;2022-09-27T03:48:47;8.18;;;6.10;;
48263;SDS011;34086;51.076;13.722;2022-09-27T03:49:48;6.70;;;5.90;;
48263;SDS011;34086;51.076;13.722;2022-09-27T03:50:50;6.68;;;5.90;;
48263;SDS011;34086;51.076;13.722;2022-09-27T03:51:50;7.57;;;6.38;;
48263;SDS011;34086;51.076;13.722;2022-09-27T03:52:51;7.63;;;6.45;;
48263;SDS011;34086;51.076;13.722;2022-09-27T03:53:54;10.95;;;6.85;;
48263;SDS011;34086;51.076;13.722;2022-09-27T03:54:54;7.05;;;6.30;;
48263;SDS011;34086;51.076;13.722;2022-09-27T03:55:56;7.70;;;6.47;;
48263;SDS011;34086;51.076;13.722;2022-09-27T03:56:57;8.05;;;6.63;;
48263;SDS011;34086;51.076;13.722;2022-09-27T03:57:58;10.60;;;6.93;;
48263;SDS011;34086;51.076;13.722;2022-09-27T03:58:59;7.85;;;6.93;;
48263;SDS011;34086;51.076;13.722;2022-09-27T04:00:01;8.18;;;7.20;;
48263;SDS011;34086;51.076;13.722;2022-09-27T04:01:11;9.20;;;6.80;;
48263;SDS011;34086;51.076;13.722;2022-09-27T04:02:13;6.97;;;6.15;;
48263;SDS011;34086;51.076;13.722;2022-09-27T04:03:34;8.63;;;6.55;;
48263;SDS011;34086;51.076;13.722;2022-09-27T04:04:54;11.63;;;8.85;;
48263;SDS011;34086;51.076;13.722;2022-09-27T04:05:54;9.45;;;8.10;;
48263;SDS011;34086;51.076;13.722;2022-09-27T04:07:04;8.75;;;7.57;;
48263;SDS011;34086;51.076;13.722;2022-09-27T04:08:04;9.07;;;7.68;;
48263;SDS011;34086;51.076;13.722;2022-09-27T04:09:07;8.43;;;7.13;;
48263;SDS011;34086;51.076;13.722;2022-09-27T04:10:27;8.23;;;6.63;;
48263;SDS011;34086;51.076;13.722;2022-09-27T04:11:28;8.48;;;6.72;;
48263;SDS011;34086;51.076;13.722;2022-09-27T04:12:28;7.63;;;6.57;;
48263;SDS011;34086;51.076;13.722;2022-09-27T04:13:29;8.10;;;6.75;;
48263;SDS011;34086;51.076;13.722;2022-09-27T04:14:30;6.80;;;6.10;;
48263;SDS011;34086;51.076;13.722;2022-09-27T04:15:53;7.20;;;6.38;;
48263;SDS011;34086;51.076;13.722;2022-09-27T04:17:27;8.98;;;6.95;;
48263;SDS011;34086;51.076;13.722;2022-09-27T04:19:06;9.73;;;7.63;;
48263;SDS011;34086;51.076;13.722;2022-09-27T04:20:20;8.60;;;7.13;;
48263;SDS011;34086;51.076;13.722;2022-09-27T04:21:21;7.97;;;6.97;;
48263;SDS011;34086;51.076;13.722;2022-09-27T04:22:25;8.50;;;6.78;;
48263;SDS011;34086;51.076;13.722;2022-09-27T04:23:25;8.20;;;6.78;;
48263;SDS011;34086;51.076;13.722;2022-09-27T04:24:27;7.85;;;6.72;;
48263;SDS011;34086;51.076;13.722;2022-09-27T04:25:45;7.95;;;6.47;;
48263;SDS011;34086;51.076;13.722;2022-09-27T04:26:54;10.07;;;7.28;;
48263;SDS011;34086;51.076;13.722;2022-09-27T04:27:59;8.13;;;6.85;;
48263;SDS011;34086;51.076;13.722;2022-09-27T04:29:00;8.55;;;6.40;;
48263;SDS011;34086;51.076;13.722;2022-09-27T04:30:02;8.05;;;6.65;;
48263;SDS011;34086;51.076;13.722;2022-09-27T04:31:42;8.48;;;6.85;;
48263;SDS011;34086;51.076;13.722;2022-09-27T04:32:58;9.43;;;7.15;;
48263;SDS011;34086;51.076;13.722;2022-09-27T04:34:17;9.85;;;7.53;;
48263;SDS011;34086;51.076;13.722;2022-09-27T04:35:42;8.88;;;6.82;;
48263;SDS011;34086;51.076;13.722;2022-09-27T04:37:01;8.57;;;6.53;;
48263;SDS011;34086;51.076;13.722;2022-09-27T04:38:12;8.15;;;6.75;;
48263;SDS011;34086;51.076;13.722;2022-09-27T04:39:13;8.38;;;7.07;;
48263;SDS011;34086;51.076;13.722;2022-09-27T04:40:16;8.98;;;7.35;;
48263;SDS011;34086;51.076;13.722;2022-09-27T04:41:17;8.98;;;7.15;;
48263;SDS011;34086;51.076;13.722;2022-09-27T04:42:17;9.00;;;7.43;;
48263;SDS011;34086;51.076;13.722;2022-09-27T04:43:18;8.40;;;7.32;;
48263;SDS011;34086;51.076;13.722;2022-09-27T04:44:19;7.95;;;7.15;;
48263;SDS011;34086;51.076;13.722;2022-09-27T04:45:23;8.05;;;7.25;;
48263;SDS011;34086;51.076;13.722;2022-09-27T04:46:24;7.97;;;7.18;;
48263;SDS011;34086;51.076;13.722;2022-09-27T04:47:24;9.13;;;7.40;;
48263;SDS011;34086;51.076;13.722;2022-09-27T04:48:25;8.68;;;7.47;;
48263;SDS011;34086;51.076;13.722;2022-09-27T04:49:26;9.85;;;8.07;;
48263;SDS011;34086;51.076;13.722;2022-09-27T04:50:27;10.25;;;9.15;;
48263;SDS011;34086;51.076;13.722;2022-09-27T04:51:36;10.95;;;8.70;;
48263;SDS011;34086;51.076;13.722;2022-09-27T04:52:37;10.63;;;8.43;;
48263;SDS011;34086;51.076;13.722;2022-09-27T04:53:39;9.93;;;8.73;;
48263;SDS011;34086;51.076;13.722;2022-09-27T04:54:40;10.95;;;9.05;;
48263;SDS011;34086;51.076;13.722;2022-09-27T04:55:45;11.25;;;8.90;;
48263;SDS011;34086;51.076;13.722;2022-09-27T04:56:46;11.82;;;9.00;;
48263;SDS011;34086;51.076;13.722;2022-09-27T04:57:48;9.82;;;8.15;;
48263;SDS011;34086;51.076;13.722;2022-09-27T04:58:49;9.40;;;7.97;;
48263;SDS011;34086;51.076;13.722;2022-09-27T04:59:49;11.15;;;8.27;;
48263;SDS011;34086;51.076;13.722;2022-09-27T05:00:52;11.00;;;8.40;;
48263;SDS011;34086;51.076;13.722;2022-09-27T05:02:22;9.63;;;8.43;;
48263;SDS011;34086;51.076;13.722;2022-09-27T05:03:42;9.20;;;8.20;;
48263;SDS011;34086;51.076;13.722;2022-09-27T05:04:45;9.40;;;8.23;;
48263;SDS011;34086;51.076;13.722;2022-09-27T05:05:46;9.88;;;8.27;;
48263;SDS011;34086;51.076;13.722;2022-09-27T05:06:46;9.05;;;7.70;;
48263;SDS011;34086;51.076;13.722;2022-09-27T05:07:56;9.77;;;8.25;;
48263;SDS011;34086;51.076;13.722;2022-09-27T05:09:17;9.70;;;8.20;;
48263;SDS011;34086;51.076;13.722;2022-09-27T05:10:23;9.15;;;8.10;;
48263;SDS011;34086;51.076;13.722;2022-09-27T05:11:24;12.57;;;7.93;;
48263;SDS011;34086;51.076;13.722;2022-09-27T05:12:54;9.75;;;8.02;;
48263;SDS011;34086;51.076;13.722;2022-09-27T05:13:55;11.93;;;8.32;;
48263;SDS011;34086;51.076;13.722;2022-09-27T05:14:57;9.43;;;8.40;;
48263;SDS011;34086;51.076;13.722;2022-09-27T05:16:17;11.15;;;8.85;;
48263;SDS011;34086;51.076;13.722;2022-09-27T05:17:37;10.60;;;8.60;;
48263;SDS011;34086;51.076;13.722;2022-09-27T05:19:16;10.60;;;8.90;;
48263;SDS011;34086;51.076;13.722;2022-09-27T05:20:46;11.77;;;9.33;;
48263;SDS011;34086;51.076;13.722;2022-09-27T05:21:54;9.95;;;8.93;;
48263;SDS011;34086;51.076;13.722;2022-09-27T05:22:54;11.13;;;9.10;;
48263;SDS011;34086;51.076;13.722;2022-09-27T05:23:56;10.27;;;8.82;;
48263;SDS011;34086;51.076;13.722;2022-09-27T05:24:57;10.18;;;8.80;;
48263;SDS011;34086;51.076;13.722;2022-09-27T05:26:02;9.85;;;8.68;;
48263;SDS011;34086;51.076;13.722;2022-09-27T05:27:04;9.57;;;8.57;;
48263;SDS011;34086;51.076;13.722;2022-09-27T05:28:08;9.60;;;8.60;;
48263;SDS011;34086;51.076;13.722;2022-09-27T05:29:08;9.55;;;8.55;;
48263;SDS011;34086;51.076;13.722;2022-09-27T05:30:10;10.40;;;8.50;;
48263;SDS011;34086;51.076;13.722;2022-09-27T05:31:18;9.90;;;8.30;;
48263;SDS011;34086;51.076;13.722;2022-09-27T05:32:19;10.20;;;8.88;;
48263;SDS011;34086;51.076;13.722;2022-09-27T05:33:25;9.45;;;8.20;;
48263;SDS011;34086;51.076;13.722;2022-09-27T05:35:01;11.65;;;9.63;;
48263;SDS011;34086;51.076;13.722;2022-09-27T05:36:02;9.85;;;8.73;;
48263;SDS011;34086;51.076;13.722;2022-09-27T05:37:04;10.60;;;8.70;;
48263;SDS011;34086;51.076;13.722;2022-09-27T05:38:10;10.65;;;9.52;;
48263;SDS011;34086;51.076;13.722;2022-09-27T05:39:13;10.73;;;8.77;;
48263;SDS011;34086;51.076;13.722;2022-09-27T05:40:17;10.18;;;8.32;;
48263;SDS011;34086;51.076;13.722;2022-09-27T05:41:18;10.75;;;8.75;;
48263;SDS011;34086;51.076;13.722;2022-09-27T05:42:19;10.25;;;8.38;;
48263;SDS011;34086;51.076;13.722;2022-09-27T05:43:20;9.63;;;8.70;;
48263;SDS011;34086;51.076;13.722;2022-09-27T05:44:22;9.57;;;8.57;;
48263;SDS011;34086;51.076;13.722;2022-09-27T05:45:30;10.35;;;8.95;;
48263;SDS011;34086;51.076;13.722;2022-09-27T05:46:36;9.73;;;8.73;;
48263;SDS011;34086;51.076;13.722;2022-09-27T05:47:38;9.80;;;8.80;;
48263;SDS011;34086;51.076;13.722;2022-09-27T05:48:39;10.05;;;8.65;;
48263;SDS011;34086;51.076;13.722;2022-09-27T05:49:40;10.68;;;9.50;;
48263;SDS011;34086;51.076;13.722;2022-09-27T05:50:42;10.80;;;9.63;;
48263;SDS011;34086;51.076;13.722;2022-09-27T05:51:44;10.98;;;9.50;;
48263;SDS011;34086;51.076;13.722;2022-09-27T05:52:45;13.82;;;12.18;;
48263;SDS011;34086;51.076;13.722;2022-09-27T05:53:47;12.93;;;11.13;;
48263;SDS011;34086;51.076;13.722;2022-09-27T05:54:55;13.13;;;11.52;;
48263;SDS011;34086;51.076;13.722;2022-09-27T05:55:59;15.13;;;11.82;;
48263;SDS011;34086;51.076;13.722;2022-09-27T05:57:08;11.95;;;10.43;;
48263;SDS011;34086;51.076;13.722;2022-09-27T05:58:20;11.30;;;9.73;;
48263;SDS011;34086;51.076;13.722;2022-09-27T05:59:32;10.43;;;9.30;;
48263;SDS011;34086;51.076;13.722;2022-09-27T06:01:06;13.30;;;11.27;;
48263;SDS011;34086;51.076;13.722;2022-09-27T06:03:45;12.75;;;10.20;;
48263;SDS011;34086;51.076;13.722;2022-09-27T06:06:25;11.52;;;9.25;;
48263;SDS011;34086;51.076;13.722;2022-09-27T06:07:30;11.82;;;8.98;;
48263;SDS011;34086;51.076;13.722;2022-09-27T06:08:32;11.10;;;9.93;;
48263;SDS011;34086;51.076;13.722;2022-09-27T06:09:35;10.40;;;9.18;;
48263;SDS011;34086;51.076;13.722;2022-09-27T06:10:36;10.32;;;9.23;;
48263;SDS011;34086;51.076;13.722;2022-09-27T06:11:40;9.55;;;8.57;;
48263;SDS011;34086;51.076;13.722;2022-09-27T06:12:44;10.18;;;9.07;;
48263;SDS011;34086;51.076;13.722;2022-09-27T06:13:59;10.48;;;9.15;;
48263;SDS011;34086;51.076;13.722;2022-09-27T06:15:04;10.18;;;9.02;;
48263;SDS011;34086;51.076;13.722;2022-09-27T06:16:10;9.73;;;8.50;;
48263;SDS011;34086;51.076;13.722;2022-09-27T06:17:14;10.57;;;8.80;;
48263;SDS011;34086;51.076;13.722;2022-09-27T06:18:17;9.50;;;8.50;;
48263;SDS011;34086;51.076;13.722;2022-09-27T06:19:21;9.48;;;8.48;;
48263;SDS011;34086;51.076;13.722;2022-09-27T06:20:22;11.25;;;8.75;;
48263;SDS011;34086;51.076;13.722;2022-09-27T06:21:23;9.50;;;8.57;;
48263;SDS011;34086;51.076;13.722;2022-09-27T06:22:29;9.85;;;8.60;;
48263;SDS011;34086;51.076;13.722;2022-09-27T06:23:33;10.15;;;8.73;;
48263;SDS011;34086;51.076;13.722;2022-09-27T06:24:41;9.88;;;8.60;;
48263;SDS011;34086;51.076;13.722;2022-09-27T06:25:50;9.73;;;8.73;;
48263;SDS011;34086;51.076;13.722;2022-09-27T06:27:07;11.70;;;8.75;;
48263;SDS011;34086;51.076;13.722;2022-09-27T06:28:20;11.38;;;9.05;;
48263;SDS011;34086;51.076;13.722;2022-09-27T06:29:24;9.82;;;8.77;;
48263;SDS011;34086;51.076;13.722;2022-09-27T06:30:30;11.13;;;9.25;;
48263;SDS011;34086;51.076;13.722;2022-09-27T06:31:32;9.68;;;8.63;;
48263;SDS011;34086;51.076;13.722;2022-09-27T06:32:58;16.27;;;13.65;;
48263;SDS011;34086;51.076;13.722;2022-09-27T06:34:20;12.75;;;11.38;;
48263;SDS011;34086;51.076;13.722;2022-09-27T06:35:21;11.95;;;10.75;;
48263;SDS011;34086;51.076;13.722;2022-09-27T06:36:24;11.40;;;10.20;;
48263;SDS011;34086;51.076;13.722;2022-09-27T06:37:25;10.70;;;9.70;;
48263;SDS011;34086;51.076;13.722;2022-09-27T06:38:26;10.70;;;9.60;;
48263;SDS011;34086;51.076;13.722;2022-09-27T06:39:44;10.63;;;9.52;;
48263;SDS011;34086;51.076;13.722;2022-09-27T06:41:06;11.32;;;9.57;;
48263;SDS011;34086;51.076;13.722;2022-09-27T06:42:22;12.55;;;10.30;;
48263;SDS011;34086;51.076;13.722;2022-09-27T06:43:46;11.48;;;9.50;;
48263;SDS011;34086;51.076;13.722;2022-09-27T06:45:07;10.43;;;9.32;;
48263;SDS011;34086;51.076;13.722;2022-09-27T06:46:14;12.27;;;9.57;;
48263;SDS011;34086;51.076;13.722;2022-09-27T06:47:34;12.38;;;9.30;;
48263;SDS011;34086;51.076;13.722;2022-09-27T06:48:50;11.63;;;9.05;;
48263;SDS011;34086;51.076;13.722;2022-09-27T06:49:52;11.25;;;9.20;;
48263;SDS011;34086;51.076;13.722;2022-09-27T06:50:53;11.30;;;9.32;;
48263;SDS011;34086;51.076;13.722;2022-09-27T06:51:57;10.43;;;9.32;;
48263;SDS011;34086;51.076;13.722;2022-09-27T06:52:58;11.25;;;10.05;;
48263;SDS011;34086;51.076;13.722;2022-09-27T06:53:59;11.65;;;10.30;;
48263;SDS011;34086;51.076;13.722;2022-09-27T06:55:00;13.40;;;10.07;;
48263;SDS011;34086;51.076;13.722;2022-09-27T06:56:02;13.43;;;10.73;;
48263;SDS011;34086;51.076;13.722;2022-09-27T06:57:14;10.65;;;9.55;;
48263;SDS011;34086;51.076;13.722;2022-09-27T06:58:35;10.82;;;9.73;;
48263;SDS011;34086;51.076;13.722;2022-09-27T07:00:16;11.45;;;10.00;;
48263;SDS011;34086;51.076;13.722;2022-09-27T07:01:42;13.95;;;11.82;;
48263;SDS011;34086;51.076;13.722;2022-09-27T07:03:13;12.73;;;10.93;;
48263;SDS011;34086;51.076;13.722;2022-09-27T07:04:37;11.70;;;10.45;;
48263;SDS011;34086;51.076;13.722;2022-09-27T07:05:53;13.70;;;12.20;;
48263;SDS011;34086;51.076;13.722;2022-09-27T07:07:15;15.50;;;12.57;;
48263;SDS011;34086;51.076;13.722;2022-09-27T07:08:21;13.43;;;11.65;;
48263;SDS011;34086;51.076;13.722;2022-09-27T07:09:22;14.18;;;11.95;;
48263;SDS011;34086;51.076;13.722;2022-09-27T07:10:23;12.50;;;11.02;;
48263;SDS011;34086;51.076;13.722;2022-09-27T07:11:25;17.73;;;12.80;;
48263;SDS011;34086;51.076;13.722;2022-09-27T07:12:26;12.75;;;11.45;;
48263;SDS011;34086;51.076;13.722;2022-09-27T07:13:27;12.63;;;11.10;;
48263;SDS011;34086;51.076;13.722;2022-09-27T07:14:33;12.00;;;10.70;;
48263;SDS011;34086;51.076;13.722;2022-09-27T07:15:36;11.88;;;10.45;;
48263;SDS011;34086;51.076;13.722;2022-09-27T07:16:44;11.70;;;10.23;;
48263;SDS011;34086;51.076;13.722;2022-09-27T07:17:45;13.02;;;10.38;;
48263;SDS011;34086;51.076;13.722;2022-09-27T07:18:46;12.35;;;11.00;;
48263;SDS011;34086;51.076;13.722;2022-09-27T07:19:48;10.90;;;9.73;;
48263;SDS011;34086;51.076;13.722;2022-09-27T07:20:49;10.77;;;9.77;;
48263;SDS011;34086;51.076;13.722;2022-09-27T07:21:50;12.80;;;10.52;;
48263;SDS011;34086;51.076;13.722;2022-09-27T07:22:51;11.07;;;9.98;;
48263;SDS011;34086;51.076;13.722;2022-09-27T07:23:52;11.73;;;10.52;;
48263;SDS011;34086;51.076;13.722;2022-09-27T07:24:53;11.70;;;10.35;;